Time;durP1;ratioP1;P1;durP2;ratioP2;P2;SDS_P1;SDS_P2;PMS_P1;PMS_P2;Temp;Humidity;BMP_temperature;BMP_pressure;BME280_temperature;BME280_humidity;BME280_pressure;Samples;Min_cycle;Max_cycle;Signal;HPM_P1;HPM_P2
2022/07/02 00:00:56;;;;;;;1.40;0.68;;;12.50;10.80;;;;;;5073626;28;34407;-72
2022/07/02 00:03:32;;;;;;;0.80;0.80;;;12.50;10.80;;;;;;5063478;28;34270;-73
2022/07/02 00:06:00;;;;;;;0.73;0.73;;;12.40;12.70;;;;;;5046988;28;34231;-73
2022/07/02 00:08:27;;;;;;;0.95;0.80;;;12.40;11.00;;;;;;5052346;28;35959;-73
2022/07/02 00:10:55;;;;;;;0.70;0.70;;;12.30;11.00;;;;;;5084006;28;34363;-73
2022/07/02 00:13:23;;;;;;;2.15;0.85;;;12.30;11.10;;;;;;5067152;28;34377;-73
2022/07/02 00:15:49;;;;;;;1.13;0.77;;;12.30;11.20;;;;;;5083894;28;34515;-73
2022/07/02 00:18:16;;;;;;;1.80;0.82;;;12.20;11.30;;;;;;5093515;28;35974;-73
2022/07/02 00:20:43;;;;;;;0.65;0.65;;;12.20;12.00;;;;;;5079830;28;34217;-73
2022/07/02 00:23:10;;;;;;;0.90;0.70;;;12.20;11.50;;;;;;5084038;28;34183;-73
2022/07/02 00:25:41;;;;;;;0.88;0.77;;;12.10;11.40;;;;;;5066368;28;34305;-73
2022/07/02 00:28:07;;;;;;;5.68;0.95;;;12.10;11.70;;;;;;5083463;28;34495;-73
2022/07/02 00:30:33;;;;;;;1.05;0.95;;;12.10;11.60;;;;;;5077719;28;34558;-73
2022/07/02 00:33:01;;;;;;;2.25;0.80;;;12.10;11.70;;;;;;5063266;28;34238;-73
2022/07/02 00:35:27;;;;;;;0.70;0.70;;;12.00;11.70;;;;;;5082398;28;34382;-73
2022/07/02 00:37:54;;;;;;;0.70;0.70;;;12.00;11.70;;;;;;5066444;28;36252;-74
2022/07/02 00:40:21;;;;;;;1.02;0.60;;;12.00;11.70;;;;;;5099836;28;35602;-73
2022/07/02 00:42:48;;;;;;;1.02;0.90;;;11.90;11.80;;;;;;5084523;28;34071;-73
2022/07/02 00:45:17;;;;;;;1.25;0.90;;;11.90;11.90;;;;;;5084016;28;34132;-73
2022/07/02 00:47:43;;;;;;;0.80;0.80;;;11.90;12.20;;;;;;5066521;28;36323;-73
2022/07/02 00:50:10;;;;;;;0.80;0.80;;;11.80;11.90;;;;;;5103611;28;34102;-72
2022/07/02 00:52:36;;;;;;;1.00;0.80;;;11.80;11.90;;;;;;5086374;28;34187;-72
2022/07/02 00:55:03;;;;;;;0.98;0.90;;;11.70;12.00;;;;;;5088443;28;34290;-73
2022/07/02 00:57:31;;;;;;;0.70;0.70;;;11.70;12.10;;;;;;5065933;28;35811;-73
2022/07/02 00:59:57;;;;;;;1.10;1.00;;;11.60;12.30;;;;;;5062462;28;34138;-73
2022/07/02 01:02:25;;;;;;;0.98;0.90;;;11.60;12.10;;;;;;5082141;28;34211;-73
2022/07/02 01:04:52;;;;;;;0.70;0.70;;;11.60;12.10;;;;;;5082933;28;34087;-73
2022/07/02 01:07:20;;;;;;;0.70;0.70;;;11.50;12.50;;;;;;5083889;28;34177;-73
2022/07/02 01:12:29;;;;;;;0.70;0.70;;;11.40;12.50;;;;;;5085700;28;34183;-73
2022/07/02 01:14:56;;;;;;;1.55;0.80;;;11.40;12.50;;;;;;5082856;28;34067;-73
2022/07/02 01:17:23;;;;;;;0.68;0.68;;;11.40;12.50;;;;;;5065297;28;35677;-73
2022/07/02 01:19:49;;;;;;;0.70;0.70;;;11.30;12.50;;;;;;5082919;28;34103;-73
2022/07/02 01:22:20;;;;;;;4.43;1.10;;;11.30;12.50;;;;;;5082681;28;34234;-73
2022/07/02 01:24:50;;;;;;;0.60;0.60;;;11.30;13.40;;;;;;5082647;28;34595;-73
2022/07/02 01:27:17;;;;;;;0.80;0.80;;;11.20;12.90;;;;;;5065808;28;36178;-73
2022/07/02 01:29:43;;;;;;;1.95;0.80;;;11.20;12.90;;;;;;5082498;28;34111;-73
2022/07/02 01:32:10;;;;;;;0.82;0.80;;;11.20;12.80;;;;;;5082761;28;34257;-73
2022/07/02 01:34:47;;;;;;;1.98;0.80;;;11.10;13.00;;;;;;5082157;28;34592;-73
2022/07/02 01:37:17;;;;;;;0.75;0.75;;;11.10;13.80;;;;;;5065377;28;36583;-73
2022/07/02 01:39:44;;;;;;;3.80;0.98;;;11.10;13.00;;;;;;5082512;28;34115;-73
2022/07/02 01:42:12;;;;;;;1.77;0.98;;;11.00;12.90;;;;;;5065172;28;34205;-73
2022/07/02 01:44:39;;;;;;;0.98;0.90;;;11.00;13.00;;;;;;5082254;28;34118;-73
2022/07/02 01:47:07;;;;;;;1.63;0.77;;;10.90;13.10;;;;;;5081888;28;36350;-72
2022/07/02 01:52:19;;;;;;;1.00;0.90;;;10.90;13.40;;;;;;5075916;28;34379;-73
2022/07/02 01:54:46;;;;;;;1.00;0.90;;;10.90;13.30;;;;;;5082150;28;34507;-73
2022/07/02 01:57:13;;;;;;;0.70;0.70;;;10.80;13.80;;;;;;5079724;28;35882;-72
2022/07/02 01:59:39;;;;;;;0.73;0.73;;;10.80;13.40;;;;;;5084148;28;34266;-72
2022/07/02 02:02:06;;;;;;;1.02;0.93;;;10.80;13.40;;;;;;5086850;28;34059;-72
2022/07/02 02:04:33;;;;;;;0.70;0.70;;;10.80;13.50;;;;;;5068517;28;34155;-72
2022/07/02 02:06:59;;;;;;;3.70;0.90;;;10.80;13.60;;;;;;5086691;28;35287;-72
2022/07/02 02:09:25;;;;;;;5.72;0.90;;;10.70;13.60;;;;;;5085221;28;34356;-73
2022/07/02 02:11:51;;;;;;;2.88;0.98;;;10.70;13.60;;;;;;5087955;28;34215;-72
2022/07/02 02:14:17;;;;;;;1.05;0.80;;;10.70;13.70;;;;;;5105860;28;34143;-73
2022/07/02 02:16:43;;;;;;;1.38;0.90;;;10.70;13.70;;;;;;5106792;28;34265;-73
2022/07/02 02:19:09;;;;;;;1.73;0.77;;;10.60;13.60;;;;;;5105703;28;34165;-72
2022/07/02 02:21:35;;;;;;;0.70;0.70;;;10.60;13.70;;;;;;5076021;28;34188;-73
2022/07/02 02:24:01;;;;;;;0.80;0.80;;;10.60;13.70;;;;;;5082494;28;34115;-72
2022/07/02 02:26:27;;;;;;;1.05;0.82;;;10.60;13.80;;;;;;5082875;28;36202;-72
2022/07/02 02:28:54;;;;;;;3.33;0.80;;;10.60;13.90;;;;;;5093033;27;34110;-72
2022/07/02 02:31:20;;;;;;;0.70;0.70;;;10.60;13.90;;;;;;5064804;28;34425;-72
2022/07/02 02:33:46;;;;;;;0.80;0.80;;;10.50;14.00;;;;;;5084118;28;35847;-72
2022/07/02 02:36:12;;;;;;;3.30;0.70;;;10.50;14.00;;;;;;5085637;28;34176;-73
2022/07/02 02:38:39;;;;;;;0.75;0.75;;;10.50;14.20;;;;;;5085105;28;34171;-73
2022/07/02 02:41:06;;;;;;;1.55;0.70;;;10.40;14.20;;;;;;5068086;28;34239;-72
2022/07/02 02:43:35;;;;;;;0.85;0.80;;;10.40;14.20;;;;;;5068084;28;34392;-73
2022/07/02 02:46:02;;;;;;;0.88;0.88;;;10.40;14.20;;;;;;5084538;28;35159;-73
2022/07/02 02:48:29;;;;;;;1.30;0.85;;;10.30;14.20;;;;;;5085431;28;34356;-72
2022/07/02 02:50:56;;;;;;;0.75;0.75;;;10.30;14.20;;;;;;5068291;28;34148;-72
2022/07/02 02:53:22;;;;;;;0.85;0.75;;;10.30;14.30;;;;;;5097957;28;34100;-73
2022/07/02 02:55:48;;;;;;;4.45;0.90;;;10.30;14.30;;;;;;5085965;28;34251;-72
2022/07/02 02:58:14;;;;;;;0.60;0.60;;;10.30;14.40;;;;;;5071162;28;34123;-73
2022/07/02 03:00:40;;;;;;;1.75;0.90;;;10.20;14.30;;;;;;5065480;28;34381;-72
2022/07/02 03:03:06;;;;;;;3.10;0.80;;;10.20;14.40;;;;;;5073365;28;34209;-72
2022/07/02 03:05:32;;;;;;;0.90;0.70;;;10.20;14.40;;;;;;5080591;28;36529;-72
2022/07/02 03:07:58;;;;;;;0.63;0.63;;;10.20;14.80;;;;;;5079214;28;34183;-72
2022/07/02 03:10:24;;;;;;;0.80;0.80;;;10.10;14.70;;;;;;5104071;28;34176;-72
2022/07/02 03:12:50;;;;;;;0.98;0.90;;;10.10;14.80;;;;;;5100547;28;34427;-72
2022/07/02 03:15:16;;;;;;;0.95;0.82;;;10.10;14.70;;;;;;5105967;28;34272;-73
2022/07/02 03:17:42;;;;;;;0.88;0.88;;;10.10;14.70;;;;;;5104517;28;34039;-72
2022/07/02 03:20:08;;;;;;;1.50;0.88;;;10.10;14.90;;;;;;5105169;28;34198;-72
2022/07/02 03:22:34;;;;;;;0.90;0.88;;;10.00;14.80;;;;;;5064319;28;34086;-72
2022/07/02 03:25:00;;;;;;;1.10;0.80;;;10.00;14.80;;;;;;5064004;28;36813;-72
2022/07/02 03:27:26;;;;;;;0.80;0.80;;;10.00;14.80;;;;;;5063661;28;34185;-73
2022/07/02 03:29:52;;;;;;;1.15;0.73;;;10.00;14.80;;;;;;5064345;28;34269;-72
2022/07/02 03:32:19;;;;;;;0.93;0.93;;;10.00;14.90;;;;;;5083582;28;34409;-72
2022/07/02 03:34:45;;;;;;;0.70;0.70;;;9.90;14.90;;;;;;5104596;28;35876;-73
2022/07/02 03:37:11;;;;;;;2.70;0.90;;;9.90;14.90;;;;;;5105764;28;34171;-72
2022/07/02 03:39:37;;;;;;;1.15;0.70;;;9.90;14.90;;;;;;5104326;28;34138;-72
2022/07/02 03:42:03;;;;;;;0.70;0.70;;;9.90;14.80;;;;;;5105539;28;34099;-74
2022/07/02 03:44:29;;;;;;;2.10;0.90;;;9.90;14.80;;;;;;5104267;28;36287;-73
2022/07/02 03:46:54;;;;;;;0.75;0.75;;;9.80;14.80;;;;;;5104507;28;34317;-73
2022/07/02 03:49:20;;;;;;;0.77;0.77;;;9.80;14.90;;;;;;5104558;28;34314;-73
2022/07/02 03:51:46;;;;;;;0.73;0.73;;;9.70;14.90;;;;;;5104354;28;34245;-73
2022/07/02 03:54:12;;;;;;;0.85;0.85;;;9.80;15.00;;;;;;5104026;28;36370;-72
2022/07/02 03:56:38;;;;;;;0.90;0.82;;;9.70;15.10;;;;;;5087113;28;34236;-72
2022/07/02 03:59:04;;;;;;;0.90;0.90;;;9.70;15.20;;;;;;5085324;28;34159;-72
2022/07/02 04:01:30;;;;;;;1.23;0.80;;;9.80;15.20;;;;;;5084100;28;34282;-73
2022/07/02 04:03:56;;;;;;;3.25;1.00;;;9.80;15.20;;;;;;5084882;28;34969;-73
2022/07/02 04:06:22;;;;;;;0.80;0.80;;;9.80;15.20;;;;;;5084811;28;34011;-73
2022/07/02 04:08:48;;;;;;;0.85;0.85;;;9.80;15.30;;;;;;5083490;28;34095;-73
2022/07/02 04:11:13;;;;;;;0.82;0.82;;;9.80;15.30;;;;;;5092134;28;34447;-72
2022/07/02 04:13:39;;;;;;;1.05;0.77;;;9.80;15.40;;;;;;5090201;28;35782;-72
2022/07/02 04:16:05;;;;;;;0.73;0.73;;;9.80;15.40;;;;;;5084905;28;34249;-72
2022/07/02 04:18:31;;;;;;;1.23;0.90;;;9.80;15.40;;;;;;5082952;28;34220;-73
2022/07/02 04:20:57;;;;;;;1.00;0.90;;;9.80;15.50;;;;;;5082589;28;34438;-73
2022/07/02 04:23:23;;;;;;;1.40;0.88;;;9.80;15.30;;;;;;5080122;28;35476;-73
2022/07/02 04:25:49;;;;;;;0.82;0.82;;;9.80;15.40;;;;;;5078061;28;34297;-72
2022/07/02 04:28:15;;;;;;;0.98;0.98;;;9.80;15.40;;;;;;5075865;28;34180;-73
2022/07/02 04:30:41;;;;;;;0.82;0.82;;;9.80;15.40;;;;;;5083557;28;34240;-73
2022/07/02 04:33:06;;;;;;;1.10;1.00;;;9.80;15.50;;;;;;5093386;28;35996;-73
2022/07/02 04:35:32;;;;;;;0.95;0.82;;;9.80;15.60;;;;;;5087352;28;34253;-72
2022/07/02 04:37:58;;;;;;;1.48;1.00;;;9.90;15.70;;;;;;5065001;28;34111;-73
2022/07/02 04:40:24;;;;;;;1.70;1.00;;;9.90;15.70;;;;;;5073579;28;34371;-73
2022/07/02 04:42:50;;;;;;;2.15;0.90;;;9.90;15.70;;;;;;5084160;28;34515;-72
2022/07/02 04:45:16;;;;;;;1.02;0.73;;;9.90;15.60;;;;;;5092200;28;34201;-73
2022/07/02 04:47:42;;;;;;;0.98;0.80;;;9.90;15.70;;;;;;5103033;28;34262;-73
2022/07/02 04:50:08;;;;;;;0.70;0.70;;;9.90;15.70;;;;;;5082954;28;34205;-73
2022/07/02 04:52:34;;;;;;;5.18;1.15;;;10.00;15.60;;;;;;5065874;28;35652;-72
2022/07/02 04:55:00;;;;;;;1.42;0.95;;;10.00;15.60;;;;;;5069569;28;34151;-73
2022/07/02 04:57:26;;;;;;;2.45;0.82;;;10.10;15.70;;;;;;5073527;28;34287;-73
2022/07/02 04:59:52;;;;;;;1.63;1.10;;;10.10;15.70;;;;;;5082979;28;34445;-73
2022/07/02 05:02:18;;;;;;;1.02;0.90;;;10.20;15.70;;;;;;5083722;28;34731;-74
2022/07/02 05:04:44;;;;;;;0.80;0.80;;;10.20;15.60;;;;;;5083978;28;34111;-73
2022/07/02 05:07:10;;;;;;;1.70;1.10;;;10.20;15.60;;;;;;5070472;28;34135;-73
2022/07/02 05:09:36;;;;;;;2.13;1.30;;;10.30;15.90;;;;;;5062469;28;34561;-73
2022/07/02 05:12:02;;;;;;;0.82;0.82;;;10.30;16.00;;;;;;5062246;28;35993;-73
2022/07/02 05:14:29;;;;;;;1.30;1.20;;;10.40;16.10;;;;;;5062387;28;34388;-73
2022/07/02 05:16:55;;;;;;;1.50;0.93;;;10.50;16.30;;;;;;5062413;28;34145;-73
2022/07/02 05:19:21;;;;;;;1.20;1.10;;;10.50;16.40;;;;;;5062630;28;34249;-73
2022/07/02 05:21:47;;;;;;;1.45;0.95;;;10.60;16.40;;;;;;5062641;28;34960;-73
2022/07/02 05:24:12;;;;;;;1.48;1.00;;;10.90;16.20;;;;;;5061940;28;34128;-73
2022/07/02 05:26:38;;;;;;;4.30;1.42;;;11.50;15.90;;;;;;5063216;28;34212;-73
2022/07/02 05:29:04;;;;;;;1.50;1.40;;;12.30;15.10;;;;;;5062034;28;34468;-74
2022/07/02 05:31:30;;;;;;;1.27;1.17;;;13.40;13.80;;;;;;5061664;28;36737;-74
2022/07/02 05:33:56;;;;;;;1.13;1.02;;;14.50;12.20;;;;;;5062181;28;34254;-74
2022/07/02 05:36:22;;;;;;;1.15;1.05;;;15.60;10.50;;;;;;5081248;28;34223;-73
2022/07/02 05:38:48;;;;;;;1.55;1.27;;;16.50;9.10;;;;;;5081992;28;34449;-73
2022/07/02 05:41:14;;;;;;;1.20;1.10;;;17.50;7.70;;;;;;5081950;28;36031;-74
2022/07/02 05:43:40;;;;;;;1.40;1.08;;;18.30;6.60;;;;;;5065474;28;34273;-74
2022/07/02 05:46:06;;;;;;;3.25;0.93;;;18.90;5.60;;;;;;5089762;28;34167;-74
2022/07/02 05:48:32;;;;;;;0.85;0.80;;;19.50;5.20;;;;;;5102574;28;34128;-74
2022/07/02 05:50:59;;;;;;;1.50;0.90;;;20.00;4.30;;;;;;5096274;28;34104;-74
2022/07/02 05:53:25;;;;;;;1.02;0.80;;;20.50;3.80;;;;;;5083005;28;34238;-74
2022/07/02 05:55:51;;;;;;;4.22;1.10;;;21.00;3.60;;;;;;5081940;28;34211;-74
2022/07/02 05:58:17;;;;;;;1.20;0.98;;;21.50;3.10;;;;;;5081727;28;34168;-74
2022/07/02 06:00:43;;;;;;;1.83;0.80;;;22.10;2.90;;;;;;5081414;28;35970;-74
2022/07/02 06:03:09;;;;;;;2.05;1.00;;;22.60;2.20;;;;;;5083573;28;34066;-74
2022/07/02 06:08:16;;;;;;;0.70;0.70;;;23.50;1.30;;;;;;5061887;28;34249;-74
2022/07/02 06:10:42;;;;;;;0.82;0.82;;;23.80;1.00;;;;;;5055572;28;35939;-74
2022/07/02 06:13:08;;;;;;;1.27;0.75;;;24.20;1.00;;;;;;5099803;28;34256;-75
2022/07/02 06:15:34;;;;;;;1.02;0.93;;;24.50;1.00;;;;;;5090441;28;34236;-74
2022/07/02 06:18:00;;;;;;;2.15;0.90;;;24.90;1.00;;;;;;5092486;28;34160;-74
2022/07/02 06:20:26;;;;;;;0.70;0.70;;;25.40;1.00;;;;;;5082637;28;34184;-75
2022/07/02 06:22:52;;;;;;;0.80;0.80;;;25.60;1.00;;;;;;5064683;28;34222;-75
2022/07/02 06:25:20;;;;;;;2.17;0.80;;;25.80;1.00;;;;;;5081209;28;34343;-74
2022/07/02 06:27:46;;;;;;;2.90;0.80;;;26.10;1.00;;;;;;5093992;28;34207;-75
2022/07/02 06:30:12;;;;;;;0.82;0.80;;;26.40;1.00;;;;;;5101710;27;35839;-75
2022/07/02 06:32:41;;;;;;;0.70;0.70;;;26.60;1.00;;;;;;5084640;28;34138;-74
2022/07/02 06:35:11;;;;;;;1.48;1.10;;;27.00;1.00;;;;;;5101920;28;34165;-75
2022/07/02 06:37:37;;;;;;;2.42;0.85;;;27.10;1.00;;;;;;5102858;28;34517;-74
2022/07/02 06:40:04;;;;;;;0.90;0.90;;;27.20;1.00;;;;;;5101638;28;35788;-75
2022/07/02 06:42:30;;;;;;;1.02;0.90;;;27.20;1.00;;;;;;5101500;28;34423;-75
2022/07/02 06:44:57;;;;;;;0.85;0.80;;;27.10;1.00;;;;;;5088580;28;34148;-75
2022/07/02 06:47:24;;;;;;;0.90;0.90;;;27.30;1.00;;;;;;5105204;27;34290;-75
2022/07/02 06:49:51;;;;;;;1.08;0.75;;;27.50;1.00;;;;;;5105428;28;35414;-74
2022/07/02 06:52:17;;;;;;;1.60;0.80;;;27.50;1.00;;;;;;5105010;27;34284;-74
2022/07/02 06:54:44;;;;;;;1.23;0.73;;;27.30;1.00;;;;;;5104877;27;34304;-75
2022/07/02 06:57:10;;;;;;;0.75;0.75;;;27.30;1.00;;;;;;5106024;28;34284;-75
2022/07/02 06:59:37;;;;;;;1.27;0.80;;;27.30;1.00;;;;;;5076433;28;34494;-75
2022/07/02 07:02:03;;;;;;;0.70;0.70;;;27.30;1.00;;;;;;5067533;28;34103;-76
2022/07/02 07:04:30;;;;;;;1.15;0.70;;;27.50;1.00;;;;;;5105035;28;34209;-75
2022/07/02 07:06:57;;;;;;;0.75;0.75;;;27.50;1.00;;;;;;5105161;28;34454;-75
2022/07/02 07:09:24;;;;;;;0.60;0.60;;;27.70;1.00;;;;;;5077557;28;35992;-76
2022/07/02 07:11:50;;;;;;;1.90;0.63;;;28.00;1.00;;;;;;5084384;28;34094;-75
2022/07/02 07:14:17;;;;;;;1.20;0.80;;;28.00;1.00;;;;;;5085867;28;34306;-76
2022/07/02 07:16:43;;;;;;;1.20;0.50;;;28.10;1.00;;;;;;5084329;28;34094;-76
2022/07/02 07:19:10;;;;;;;1.95;0.90;;;28.20;1.00;;;;;;5082596;28;35794;-76
2022/07/02 07:21:37;;;;;;;0.77;0.60;;;28.20;1.00;;;;;;5083912;28;34520;-75
2022/07/02 07:24:04;;;;;;;2.60;0.90;;;28.00;1.00;;;;;;5083784;28;34265;-75
2022/07/02 07:26:32;;;;;;;1.75;0.93;;;27.80;1.00;;;;;;5085391;28;34122;-76
2022/07/02 07:28:58;;;;;;;0.80;0.80;;;27.80;1.00;;;;;;5083226;28;36203;-76
2022/07/02 07:31:24;;;;;;;1.08;0.90;;;27.80;1.00;;;;;;5085474;28;34249;-75
2022/07/02 07:33:52;;;;;;;2.35;0.57;;;27.80;1.00;;;;;;5084664;28;34115;-76
2022/07/02 07:36:21;;;;;;;1.25;0.80;;;27.70;1.00;;;;;;5075172;28;34270;-77
2022/07/02 07:38:49;;;;;;;0.70;0.70;;;27.80;1.00;;;;;;5087124;28;35177;-76
2022/07/02 07:41:36;;;;;;;2.70;0.70;;;27.80;1.00;;;;;;5084355;28;34122;-76
2022/07/02 07:44:08;;;;;;;0.70;0.60;;;28.00;1.00;;;;;;5080444;28;34074;-76
2022/07/02 07:46:34;;;;;;;0.73;0.73;;;28.20;1.00;;;;;;5096647;28;34287;-76
2022/07/02 07:49:00;;;;;;;0.77;0.70;;;28.20;1.00;;;;;;5086405;28;35627;-75
2022/07/02 07:51:26;;;;;;;3.17;0.70;;;28.40;1.00;;;;;;5064591;28;34295;-75
2022/07/02 07:53:52;;;;;;;1.42;0.50;;;28.40;1.00;;;;;;5083146;28;34331;-75
2022/07/02 07:56:18;;;;;;;1.20;0.75;;;28.50;1.00;;;;;;5076356;28;35763;-75
2022/07/02 07:58:45;;;;;;;1.92;0.85;;;28.40;1.00;;;;;;5080195;28;35500;-75
2022/07/02 08:01:11;;;;;;;0.63;0.52;;;28.50;1.00;;;;;;5085801;28;34357;-76
2022/07/02 08:03:37;;;;;;;1.95;0.60;;;28.50;1.00;;;;;;5074181;28;34216;-75
2022/07/02 08:06:03;;;;;;;1.00;0.60;;;28.60;1.00;;;;;;5091214;28;34182;-76
2022/07/02 08:08:29;;;;;;;0.57;0.57;;;28.60;1.00;;;;;;5081412;28;35088;-76
2022/07/02 08:10:55;;;;;;;10.30;0.60;;;28.70;1.00;;;;;;5062986;28;34194;-75
2022/07/02 08:13:21;;;;;;;2.60;0.70;;;28.60;1.00;;;;;;5096919;28;34527;-76
2022/07/02 08:15:47;;;;;;;1.35;0.50;;;28.70;1.00;;;;;;5078863;28;34419;-76
2022/07/02 08:18:12;;;;;;;0.68;0.43;;;28.90;1.00;;;;;;5083462;28;34287;-76
2022/07/02 08:20:39;;;;;;;0.60;0.60;;;29.30;1.00;;;;;;5072522;28;34127;-79
2022/07/02 08:23:04;;;;;;;0.50;0.50;;;29.50;1.00;;;;;;5080014;28;34480;-76
2022/07/02 08:25:30;;;;;;;0.50;0.50;;;29.80;1.00;;;;;;5081987;28;34556;-76
2022/07/02 08:27:57;;;;;;;1.70;0.60;;;29.90;1.00;;;;;;5076706;28;35879;-76
2022/07/02 08:30:23;;;;;;;0.98;0.55;;;30.00;1.00;;;;;;5077524;28;34119;-76
2022/07/02 08:32:51;;;;;;;0.40;0.40;;;30.00;1.00;;;;;;5064160;28;34252;-76
2022/07/02 08:35:17;;;;;;;1.83;0.60;;;30.20;1.00;;;;;;5094024;28;34492;-76
2022/07/02 08:37:43;;;;;;;0.77;0.50;;;30.40;1.00;;;;;;5073009;28;34630;-76
2022/07/02 08:40:10;;;;;;;1.15;0.70;;;30.60;1.00;;;;;;5083922;28;34202;-76
2022/07/02 08:42:39;;;;;;;0.65;0.60;;;30.60;1.00;;;;;;5089840;28;34251;-76
2022/07/02 08:45:06;;;;;;;0.85;0.40;;;30.40;1.00;;;;;;5077039;28;34447;-77
2022/07/02 08:47:32;;;;;;;2.35;0.50;;;30.30;1.00;;;;;;5053556;28;35825;-75
2022/07/02 08:49:59;;;;;;;0.40;0.40;;;30.10;1.00;;;;;;5078058;28;34442;-76
2022/07/02 08:52:27;;;;;;;0.43;0.35;;;30.10;1.00;;;;;;5066465;28;34391;-77
2022/07/02 08:54:54;;;;;;;1.30;0.45;;;30.20;1.00;;;;;;5059530;28;34237;-76
2022/07/02 08:57:22;;;;;;;0.50;0.50;;;30.40;1.00;;;;;;5064094;28;34174;-76
2022/07/02 08:59:48;;;;;;;0.80;0.50;;;30.40;1.00;;;;;;5083058;28;34751;-77
2022/07/02 09:02:15;;;;;;;2.03;0.50;;;30.40;1.00;;;;;;5085676;28;34249;-80
2022/07/02 09:04:46;;;;;;;0.50;0.30;;;30.50;1.00;;;;;;5098335;28;34227;-76
2022/07/02 09:07:13;;;;;;;0.75;0.50;;;30.70;1.00;;;;;;5072021;28;35631;-77
2022/07/02 09:09:43;;;;;;;0.70;0.40;;;30.70;1.00;;;;;;5081999;28;34255;-77
2022/07/02 09:12:12;;;;;;;0.63;0.40;;;30.60;1.00;;;;;;5063296;28;34703;-77
2022/07/02 09:14:39;;;;;;;0.45;0.30;;;30.60;1.00;;;;;;5080707;28;34338;-77
2022/07/02 09:17:07;;;;;;;0.65;0.40;;;30.70;1.00;;;;;;5103068;28;35905;-77
2022/07/02 09:19:34;;;;;;;1.10;0.47;;;30.80;1.00;;;;;;5084688;28;33758;-76
2022/07/02 09:22:00;;;;;;;0.77;0.40;;;30.80;1.00;;;;;;5074346;28;34233;-76
2022/07/02 09:24:42;;;;;;;0.30;0.20;;;30.80;1.00;;;;;;5068277;28;34314;-76
2022/07/02 09:27:14;;;;;;;0.35;0.20;;;30.90;1.00;;;;;;5073432;28;35130;-76
2022/07/02 09:29:46;;;;;;;0.82;0.35;;;30.60;1.00;;;;;;5065513;28;34147;-76
2022/07/02 09:32:13;;;;;;;0.30;0.30;;;30.50;1.00;;;;;;5049010;28;34095;-78
2022/07/02 09:34:43;;;;;;;0.25;0.25;;;30.50;1.00;;;;;;5092940;28;34139;-77
2022/07/02 09:37:15;;;;;;;0.20;0.20;;;30.60;1.00;;;;;;5063475;28;35862;-76
2022/07/02 09:39:43;;;;;;;0.57;0.40;;;30.60;1.00;;;;;;5071324;28;34190;-77
2022/07/02 09:42:10;;;;;;;2.20;0.63;;;30.30;1.00;;;;;;5079794;28;34169;-76
2022/07/02 09:44:45;;;;;;;0.35;0.30;;;29.70;1.00;;;;;;5095937;27;34254;-77
2022/07/02 09:47:11;;;;;;;0.20;0.20;;;29.50;1.00;;;;;;5092018;28;35683;-76
2022/07/02 09:49:47;;;;;;;1.60;0.50;;;29.20;1.00;;;;;;5083226;28;34436;-76
2022/07/02 09:52:15;;;;;;;0.47;0.47;;;29.10;1.00;;;;;;5078651;28;34075;-77
2022/07/02 09:54:42;;;;;;;1.92;0.22;;;29.10;1.00;;;;;;5061214;28;34285;-76
2022/07/02 09:57:10;;;;;;;1.00;0.40;;;28.90;1.00;;;;;;5083247;28;36224;-75
2022/07/02 09:59:37;;;;;;;0.73;0.40;;;29.00;1.00;;;;;;5083313;28;34350;-76
2022/07/02 10:02:04;;;;;;;2.35;0.60;;;28.90;1.00;;;;;;5060867;28;34315;-76
2022/07/02 10:04:32;;;;;;;0.93;0.50;;;28.90;1.00;;;;;;5080121;28;34213;-77
2022/07/02 10:06:59;;;;;;;0.40;0.40;;;28.90;1.00;;;;;;5068025;28;34186;-75
2022/07/02 10:09:27;;;;;;;0.50;0.50;;;29.10;1.00;;;;;;5079892;28;34068;-80
2022/07/02 10:11:54;;;;;;;0.40;0.40;;;29.30;1.00;;;;;;5067377;28;34131;-77
2022/07/02 10:14:21;;;;;;;0.20;0.20;;;29.60;1.00;;;;;;5090253;28;34393;-77
2022/07/02 10:16:49;;;;;;;0.60;0.40;;;29.80;1.00;;;;;;5095963;28;35898;-77
2022/07/02 10:19:15;;;;;;;1.27;0.40;;;29.90;1.00;;;;;;5079338;28;35578;-79
2022/07/02 10:21:42;;;;;;;0.20;0.20;;;29.90;1.00;;;;;;5073371;28;34167;-77
2022/07/02 10:24:10;;;;;;;2.30;0.40;;;29.80;1.00;;;;;;5077385;28;34566;-78
2022/07/02 10:26:37;;;;;;;1.17;0.50;;;29.80;1.00;;;;;;5073831;28;35255;-77
2022/07/02 10:29:04;;;;;;;1.75;0.38;;;29.80;1.00;;;;;;5074183;28;34140;-78
2022/07/02 10:31:40;;;;;;;0.32;0.20;;;29.80;1.00;;;;;;5073020;28;34110;-76
2022/07/02 10:34:37;;;;;;;0.28;0.20;;;30.00;1.00;;;;;;5075724;28;34124;-76
2022/07/02 10:37:03;;;;;;;0.47;0.40;;;30.30;1.00;;;;;;5061837;28;35896;-77
2022/07/02 10:39:38;;;;;;;0.38;0.38;;;30.30;1.00;;;;;;5065522;28;34218;-78
2022/07/02 10:42:05;;;;;;;1.15;0.40;;;30.60;1.00;;;;;;5081130;28;34293;-78
2022/07/02 10:44:39;;;;;;;0.40;0.40;;;30.80;1.00;;;;;;5065397;28;34155;-79
2022/07/02 10:47:21;;;;;;;2.17;0.30;;;30.90;1.00;;;;;;5078343;28;36565;-77
2022/07/02 10:49:58;;;;;;;1.55;0.63;;;30.90;1.00;;;;;;5071374;28;34350;-80
2022/07/02 10:52:48;;;;;;;0.50;0.40;;;31.00;1.00;;;;;;5073386;28;34333;-77
2022/07/02 10:55:24;;;;;;;0.82;0.30;;;31.10;1.00;;;;;;5085055;28;34365;-77
2022/07/02 10:57:59;;;;;;;3.22;0.50;;;30.90;1.00;;;;;;5090785;28;35632;-77
2022/07/02 11:00:30;;;;;;;0.38;0.38;;;30.90;1.00;;;;;;5093425;27;34163;-79
2022/07/02 11:02:57;;;;;;;1.13;0.40;;;30.20;1.00;;;;;;5091684;28;34277;-76
2022/07/02 11:05:23;;;;;;;2.65;0.30;;;30.10;1.00;;;;;;5074042;28;34837;-76
2022/07/02 11:07:49;;;;;;;0.40;0.35;;;29.80;1.00;;;;;;5083183;28;35489;-78
2022/07/02 11:10:15;;;;;;;0.30;0.30;;;29.90;1.00;;;;;;5072264;28;34107;-77
2022/07/02 11:13:00;;;;;;;0.40;0.40;;;30.00;1.00;;;;;;5071468;28;34439;-77
2022/07/02 11:15:35;;;;;;;0.57;0.35;;;30.20;1.00;;;;;;5071235;28;34449;-77
2022/07/02 11:18:05;;;;;;;0.40;0.30;;;29.90;1.00;;;;;;5068336;28;36022;-79
2022/07/02 11:20:35;;;;;;;1.02;0.30;;;29.70;1.00;;;;;;5075168;28;34436;-77
2022/07/02 11:23:02;;;;;;;0.65;0.40;;;29.50;1.00;;;;;;5101942;28;34445;-77
2022/07/02 11:25:30;;;;;;;0.40;0.40;;;29.40;1.00;;;;;;5085005;28;34288;-77
2022/07/02 11:27:58;;;;;;;1.45;0.77;;;29.40;1.00;;;;;;5078086;28;35653;-76
2022/07/02 11:30:26;;;;;;;0.52;0.40;;;29.30;1.00;;;;;;5071711;28;34233;-78
2022/07/02 11:32:52;;;;;;;1.05;0.50;;;29.50;1.00;;;;;;5084218;28;34171;-76
2022/07/02 11:35:18;;;;;;;0.20;0.20;;;29.60;1.00;;;;;;5087126;28;34210;-80
2022/07/02 11:37:44;;;;;;;0.75;0.47;;;29.70;1.00;;;;;;5080206;28;35255;-76
2022/07/02 11:40:21;;;;;;;2.30;0.40;;;29.80;1.00;;;;;;5075952;28;34076;-77
2022/07/02 11:42:47;;;;;;;0.43;0.32;;;30.10;1.00;;;;;;5085029;28;34306;-76
2022/07/02 11:45:13;;;;;;;1.05;0.35;;;30.20;1.00;;;;;;5084623;28;34125;-78
2022/07/02 11:47:48;;;;;;;0.73;0.45;;;30.30;1.00;;;;;;5097722;28;36005;-77
2022/07/02 11:50:14;;;;;;;0.50;0.40;;;30.40;1.00;;;;;;5067670;28;34202;-77
2022/07/02 11:52:41;;;;;;;0.50;0.50;;;30.50;1.00;;;;;;5084323;28;34111;-77
2022/07/02 11:55:15;;;;;;;1.10;0.40;;;30.70;1.00;;;;;;5085087;28;34389;-78
2022/07/02 11:57:42;;;;;;;0.40;0.40;;;30.70;1.00;;;;;;5066598;28;35614;-78
2022/07/02 12:00:09;;;;;;;0.57;0.40;;;30.70;1.00;;;;;;5085273;28;34300;-77
2022/07/02 12:02:37;;;;;;;0.80;0.50;;;30.70;1.00;;;;;;5064018;28;34203;-77
2022/07/02 12:05:19;;;;;;;1.17;0.45;;;30.80;1.00;;;;;;5064661;28;34101;-78
2022/07/02 12:07:46;;;;;;;0.52;0.30;;;30.80;1.00;;;;;;5081607;28;35928;-77
2022/07/02 12:10:13;;;;;;;1.27;0.80;;;30.70;1.00;;;;;;5066057;28;34191;-78
2022/07/02 12:12:39;;;;;;;0.47;0.32;;;30.70;1.00;;;;;;5080923;28;34326;-77
2022/07/02 12:15:06;;;;;;;2.05;0.70;;;30.80;1.00;;;;;;5081121;28;34527;-77
2022/07/02 12:17:35;;;;;;;2.17;0.50;;;30.70;1.00;;;;;;5064467;28;34868;-77
2022/07/02 12:20:03;;;;;;;1.02;0.55;;;30.50;1.00;;;;;;5081122;28;34283;-77
2022/07/02 12:22:29;;;;;;;0.70;0.30;;;30.40;1.00;;;;;;5064191;28;34116;-77
2022/07/02 12:24:55;;;;;;;2.17;0.50;;;30.40;1.00;;;;;;5094314;28;34065;-78
2022/07/02 12:27:24;;;;;;;0.45;0.40;;;30.40;1.00;;;;;;5063595;28;35759;-77
2022/07/02 12:30:04;;;;;;;0.68;0.40;;;30.50;1.00;;;;;;5070121;28;34258;-77
2022/07/02 12:32:32;;;;;;;1.67;0.57;;;30.60;1.00;;;;;;5085499;28;34114;-77
2022/07/02 12:35:03;;;;;;;1.25;0.43;;;30.70;1.00;;;;;;5085199;28;34380;-76
2022/07/02 12:37:31;;;;;;;0.50;0.50;;;30.50;1.00;;;;;;5084028;28;34077;-76
2022/07/02 12:40:02;;;;;;;0.40;0.40;;;30.70;1.00;;;;;;5084805;28;34193;-77
2022/07/02 12:42:33;;;;;;;1.65;0.57;;;30.80;1.00;;;;;;5083053;28;34354;-77
2022/07/02 12:45:02;;;;;;;2.00;0.30;;;31.00;1.00;;;;;;5083988;28;34178;-77
2022/07/02 12:47:32;;;;;;;0.90;0.43;;;31.10;1.00;;;;;;5083628;28;34911;-77
2022/07/02 12:50:02;;;;;;;0.43;0.30;;;31.30;1.00;;;;;;5067519;28;34337;-79
2022/07/02 12:52:30;;;;;;;0.45;0.45;;;31.20;1.00;;;;;;5063752;28;34104;-77
2022/07/02 12:54:58;;;;;;;0.75;0.43;;;31.20;1.00;;;;;;5031068;28;34156;-79
2022/07/02 12:57:25;;;;;;;0.65;0.50;;;31.10;1.00;;;;;;5049114;28;36030;-81
2022/07/02 12:59:53;;;;;;;2.13;0.60;;;31.00;1.00;;;;;;5084171;28;34182;-78
2022/07/02 13:02:24;;;;;;;1.30;0.43;;;31.00;1.00;;;;;;5063138;28;34175;-79